Time;durP1;ratioP1;P1;durP2;ratioP2;P2;SDS_P1;SDS_P2;PMS_P1;PMS_P2;Temp;Humidity;BMP_temperature;BMP_pressure;BME280_temperature;BME280_humidity;BME280_pressure;Samples;Min_cycle;Max_cycle;Signal;HPM_P1;HPM_P2
2023/08/25 00:01:27;;;;;;;;;;;26.00;59.90;;;;;;1511451;76;762;-54
2023/08/25 00:03:29;;;;;;;;;;;26.00;59.90;;;;;;1518141;77;1927;-56
2023/08/25 00:05:31;;;;;;;;;;;25.90;59.40;;;;;;1516821;77;1576;-55
2023/08/25 00:07:32;;;;;;;;;;;25.90;59.40;;;;;;1530076;77;749;-55
2023/08/25 00:09:34;;;;;;;;;;;26.00;60.00;;;;;;1520976;76;1151;-55
2023/08/25 00:11:37;;;;;;;;;;;25.90;59.50;;;;;;1528955;76;700;-55
2023/08/25 00:13:39;;;;;;;;;;;25.90;59.60;;;;;;1529388;76;704;-55
2023/08/25 00:15:42;;;;;;;;;;;26.00;60.30;;;;;;1524509;77;766;-56
2023/08/25 00:17:44;;;;;;;;;;;25.90;59.80;;;;;;1527631;77;745;-55
2023/08/25 00:19:45;;;;;;;;;;;26.00;60.50;;;;;;1542406;76;1567;-54
2023/08/25 00:21:47;;;;;;;;;;;26.00;60.50;;;;;;1512005;77;732;-55
2023/08/25 00:23:49;;;;;;;;;;;26.00;60.40;;;;;;1511589;77;1948;-54
2023/08/25 00:25:53;;;;;;;;;;;25.90;59.80;;;;;;1512066;78;582;-53
2023/08/25 00:27:55;;;;;;;;;;;25.90;59.80;;;;;;1521005;77;739;-55
2023/08/25 00:29:57;;;;;;;;;;;25.90;59.70;;;;;;1510733;77;1139;-53
2023/08/25 00:31:59;;;;;;;;;;;25.90;59.60;;;;;;1510618;77;796;-54
2023/08/25 00:34:02;;;;;;;;;;;25.90;59.40;;;;;;1519651;77;1461;-54
2023/08/25 00:36:04;;;;;;;;;;;25.90;59.20;;;;;;1512457;77;731;-54
2023/08/25 00:38:06;;;;;;;;;;;26.00;59.70;;;;;;1511929;78;742;-55
2023/08/25 00:40:08;;;;;;;;;;;26.00;59.60;;;;;;1517684;77;1128;-53
2023/08/25 00:42:10;;;;;;;;;;;25.90;59.00;;;;;;1521765;77;719;-55
2023/08/25 00:44:12;;;;;;;;;;;25.90;58.90;;;;;;1509527;77;1939;-53
2023/08/25 00:46:14;;;;;;;;;;;25.90;58.90;;;;;;1503374;78;767;-55
2023/08/25 00:48:16;;;;;;;;;;;26.00;59.40;;;;;;1514899;77;1632;-54
2023/08/25 00:50:18;;;;;;;;;;;25.90;58.90;;;;;;1516024;78;1101;-56
2023/08/25 00:52:20;;;;;;;;;;;25.90;58.80;;;;;;1510049;77;1063;-55
2023/08/25 00:54:22;;;;;;;;;;;25.90;58.90;;;;;;1500769;78;796;-53
2023/08/25 00:56:24;;;;;;;;;;;26.00;59.40;;;;;;1499713;78;1071;-54
2023/08/25 00:58:26;;;;;;;;;;;25.90;58.80;;;;;;1512825;77;811;-54
2023/08/25 01:00:28;;;;;;;;;;;25.90;58.80;;;;;;1508714;77;1163;-54
2023/08/25 01:02:29;;;;;;;;;;;25.90;58.80;;;;;;1500815;78;1506;-53
2023/08/25 01:04:31;;;;;;;;;;;26.00;59.40;;;;;;1508680;78;1941;-55
2023/08/25 01:06:33;;;;;;;;;;;25.90;58.90;;;;;;1506243;77;726;-54
2023/08/25 01:08:35;;;;;;;;;;;25.90;58.90;;;;;;1508459;77;744;-56
2023/08/25 01:10:52;;;;;;;;;;;26.00;59.40;;;;;;1510486;77;1103;-54
2023/08/25 01:13:02;;;;;;;;;;;25.90;58.90;;;;;;1514945;77;754;-55
2023/08/25 01:15:05;;;;;;;;;;;25.90;58.90;;;;;;1512832;78;2143;-55
2023/08/25 01:17:12;;;;;;;;;;;25.90;58.90;;;;;;1510215;77;1583;-54
2023/08/25 01:19:21;;;;;;;;;;;25.90;58.90;;;;;;1520378;77;1885;-54
2023/08/25 01:21:23;;;;;;;;;;;26.00;59.30;;;;;;1462097;77;1044;-55
2023/08/25 01:23:30;;;;;;;;;;;25.90;58.60;;;;;;1509973;77;1953;-54
2023/08/25 01:25:32;;;;;;;;;;;25.90;58.50;;;;;;1508304;78;731;-55
2023/08/25 01:27:34;;;;;;;;;;;25.90;58.40;;;;;;1505243;77;862;-53
2023/08/25 01:29:36;;;;;;;;;;;25.90;58.30;;;;;;1514377;77;1623;-54
2023/08/25 01:31:38;;;;;;;;;;;25.90;58.20;;;;;;1507500;77;574;-54
2023/08/25 01:33:45;;;;;;;;;;;25.90;58.10;;;;;;1509722;77;822;-55
2023/08/25 01:35:49;;;;;;;;;;;25.90;58.10;;;;;;1515502;78;1748;-52
2023/08/25 01:37:52;;;;;;;;;;;25.90;58.10;;;;;;1504362;77;984;-55
2023/08/25 01:39:54;;;;;;;;;;;25.90;58.10;;;;;;1507323;77;1141;-53
2023/08/25 01:41:57;;;;;;;;;;;25.90;58.10;;;;;;1505632;77;732;-52
2023/08/25 01:44:00;;;;;;;;;;;25.90;58.10;;;;;;1500874;77;1945;-54
2023/08/25 01:46:02;;;;;;;;;;;25.90;58.10;;;;;;1520121;78;1788;-54
2023/08/25 01:48:05;;;;;;;;;;;25.90;58.00;;;;;;1515494;77;768;-53
2023/08/25 01:50:08;;;;;;;;;;;25.90;57.90;;;;;;1524827;76;1162;-55
2023/08/25 01:52:12;;;;;;;;;;;25.90;57.80;;;;;;1526868;77;1048;-54
2023/08/25 01:54:16;;;;;;;;;;;25.90;57.60;;;;;;1505063;76;1689;-53
2023/08/25 01:56:18;;;;;;;;;;;25.90;57.30;;;;;;1529682;76;955;-55
2023/08/25 01:58:20;;;;;;;;;;;25.90;57.10;;;;;;1522524;76;1294;-54
2023/08/25 02:00:22;;;;;;;;;;;25.90;56.80;;;;;;1531429;77;1178;-53
2023/08/25 02:02:24;;;;;;;;;;;25.90;56.50;;;;;;1526340;77;752;-53
2023/08/25 02:04:26;;;;;;;;;;;25.90;56.30;;;;;;1532270;76;1930;-53
2023/08/25 02:06:28;;;;;;;;;;;25.80;56.00;;;;;;1521467;77;714;-55
2023/08/25 02:08:30;;;;;;;;;;;25.90;55.80;;;;;;1520998;77;730;-54
2023/08/25 02:10:32;;;;;;;;;;;25.80;55.70;;;;;;1525932;76;1157;-55
2023/08/25 02:12:33;;;;;;;;;;;25.80;55.60;;;;;;1523070;76;1462;-55
2023/08/25 02:14:35;;;;;;;;;;;25.90;55.20;;;;;;1523229;77;720;-56
2023/08/25 02:16:37;;;;;;;;;;;25.90;55.20;;;;;;1513828;77;681;-55
2023/08/25 02:18:39;;;;;;;;;;;25.90;55.00;;;;;;1517320;77;808;-53
2023/08/25 02:20:41;;;;;;;;;;;25.80;54.90;;;;;;1522861;76;1138;-55
2023/08/25 02:22:43;;;;;;;;;;;25.80;54.80;;;;;;1514809;77;709;-56
2023/08/25 02:24:45;;;;;;;;;;;25.90;54.70;;;;;;1513069;76;1936;-55
2023/08/25 02:26:46;;;;;;;;;;;25.90;54.60;;;;;;1517900;76;1541;-56
2023/08/25 02:28:48;;;;;;;;;;;25.80;54.40;;;;;;1529790;76;723;-54
2023/08/25 02:30:50;;;;;;;;;;;25.80;54.50;;;;;;1514469;77;1111;-55
2023/08/25 02:32:52;;;;;;;;;;;25.80;54.40;;;;;;1526771;77;693;-53
2023/08/25 02:34:54;;;;;;;;;;;25.80;54.40;;;;;;1518881;77;787;-56
2023/08/25 02:36:56;;;;;;;;;;;25.90;54.50;;;;;;1521669;76;839;-56
2023/08/25 02:38:58;;;;;;;;;;;25.90;54.50;;;;;;1525449;76;1138;-55
2023/08/25 02:41:00;;;;;;;;;;;25.80;54.60;;;;;;1529332;76;1603;-55
2023/08/25 02:43:04;;;;;;;;;;;25.80;54.50;;;;;;1530042;76;753;-55
2023/08/25 02:45:06;;;;;;;;;;;25.80;54.50;;;;;;1530535;76;1913;-55
2023/08/25 02:47:08;;;;;;;;;;;25.80;54.50;;;;;;1524794;77;837;-55
2023/08/25 02:49:10;;;;;;;;;;;25.80;54.40;;;;;;1525306;77;1140;-55
2023/08/25 02:51:12;;;;;;;;;;;25.80;54.40;;;;;;1525973;76;729;-53
2023/08/25 02:53:14;;;;;;;;;;;25.80;54.40;;;;;;1543181;77;1129;-54
2023/08/25 02:55:17;;;;;;;;;;;25.80;54.40;;;;;;1540583;75;1564;-53
2023/08/25 02:57:19;;;;;;;;;;;25.90;54.40;;;;;;1546050;75;773;-54
2023/08/25 02:59:21;;;;;;;;;;;25.80;54.40;;;;;;1544446;75;1184;-55
2023/08/25 03:01:23;;;;;;;;;;;25.80;54.40;;;;;;1544854;75;788;-56
2023/08/25 03:03:27;;;;;;;;;;;25.80;54.30;;;;;;1540514;77;1931;-54
2023/08/25 03:05:29;;;;;;;;;;;25.80;54.30;;;;;;1538745;75;659;-51
2023/08/25 03:07:31;;;;;;;;;;;25.80;54.30;;;;;;1549841;75;795;-52
2023/08/25 03:09:32;;;;;;;;;;;25.70;54.20;;;;;;1537547;75;1547;-54
2023/08/25 03:11:34;;;;;;;;;;;25.70;54.20;;;;;;1537067;75;686;-54
2023/08/25 03:13:36;;;;;;;;;;;25.80;54.10;;;;;;1550248;77;701;-54
2023/08/25 03:15:38;;;;;;;;;;;25.80;54.10;;;;;;1539236;75;787;-53
2023/08/25 03:17:41;;;;;;;;;;;25.80;53.90;;;;;;1529177;75;788;-54
2023/08/25 03:19:43;;;;;;;;;;;25.80;53.80;;;;;;1548483;75;1431;-55
2023/08/25 03:21:45;;;;;;;;;;;25.80;53.70;;;;;;1540222;75;662;-54
2023/08/25 03:23:46;;;;;;;;;;;25.80;53.70;;;;;;1540245;75;1972;-54
2023/08/25 03:25:49;;;;;;;;;;;25.70;53.60;;;;;;1548438;75;766;-54
2023/08/25 03:27:50;;;;;;;;;;;25.70;53.60;;;;;;1546856;77;725;-54
2023/08/25 03:29:52;;;;;;;;;;;25.80;53.50;;;;;;1535474;76;1149;-53
2023/08/25 03:31:54;;;;;;;;;;;25.70;53.50;;;;;;1546899;75;743;-55
2023/08/25 03:33:56;;;;;;;;;;;25.80;53.50;;;;;;1548987;75;738;-55
2023/08/25 03:35:58;;;;;;;;;;;25.80;53.50;;;;;;1548855;77;794;-54
2023/08/25 03:38:00;;;;;;;;;;;25.70;53.40;;;;;;1533600;77;1574;-55
2023/08/25 03:40:02;;;;;;;;;;;25.70;53.40;;;;;;1531385;75;1160;-55
2023/08/25 03:42:04;;;;;;;;;;;25.80;53.40;;;;;;1549235;75;739;-53
2023/08/25 03:44:06;;;;;;;;;;;25.80;53.40;;;;;;1548131;77;1928;-55
2023/08/25 03:46:08;;;;;;;;;;;25.70;53.40;;;;;;1545187;75;728;-54
2023/08/25 03:48:10;;;;;;;;;;;25.80;53.40;;;;;;1538735;77;739;-53
2023/08/25 03:50:12;;;;;;;;;;;25.60;53.30;;;;;;1549783;75;1558;-54
2023/08/25 03:52:13;;;;;;;;;;;25.70;53.30;;;;;;1548196;76;780;-55
2023/08/25 03:54:16;;;;;;;;;;;25.80;53.30;;;;;;1546990;75;1084;-55
2023/08/25 03:56:17;;;;;;;;;;;25.80;53.30;;;;;;1542557;77;791;-54
2023/08/25 03:58:19;;;;;;;;;;;25.70;53.20;;;;;;1540644;77;731;-53
2023/08/25 04:00:21;;;;;;;;;;;25.70;53.30;;;;;;1549404;75;1186;-55
2023/08/25 04:02:23;;;;;;;;;;;25.70;53.30;;;;;;1545052;75;680;-54
2023/08/25 04:04:25;;;;;;;;;;;25.80;53.40;;;;;;1547997;77;1928;-53
2023/08/25 04:06:27;;;;;;;;;;;25.80;53.30;;;;;;1537698;75;649;-54
2023/08/25 04:08:29;;;;;;;;;;;25.70;53.40;;;;;;1549134;75;719;-55
2023/08/25 04:10:31;;;;;;;;;;;25.70;53.60;;;;;;1539130;75;1126;-51
2023/08/25 04:12:32;;;;;;;;;;;25.70;53.60;;;;;;1540433;75;737;-53
2023/08/25 04:14:34;;;;;;;;;;;25.70;53.60;;;;;;1553785;75;804;-55
2023/08/25 04:16:36;;;;;;;;;;;25.70;53.60;;;;;;1539336;75;692;-53
2023/08/25 04:18:38;;;;;;;;;;;25.70;53.50;;;;;;1535344;76;1529;-52
2023/08/25 04:20:40;;;;;;;;;;;25.70;53.30;;;;;;1535611;77;1103;-53
2023/08/25 04:22:42;;;;;;;;;;;25.70;53.10;;;;;;1548620;76;774;-54
2023/08/25 04:24:44;;;;;;;;;;;25.70;53.10;;;;;;1534210;75;1935;-56
2023/08/25 04:26:46;;;;;;;;;;;25.80;53.20;;;;;;1531222;77;738;-54
2023/08/25 04:28:48;;;;;;;;;;;25.70;52.80;;;;;;1532643;75;714;-55
2023/08/25 04:30:52;;;;;;;;;;;25.70;52.80;;;;;;1547107;75;1072;-53
2023/08/25 04:32:54;;;;;;;;;;;25.70;52.90;;;;;;1543327;75;1495;-53
2023/08/25 04:34:56;;;;;;;;;;;25.70;52.80;;;;;;1536188;75;706;-53
2023/08/25 04:36:58;;;;;;;;;;;25.70;53.00;;;;;;1535989;75;723;-53
2023/08/25 04:39:00;;;;;;;;;;;25.80;52.90;;;;;;1546453;75;1150;-53
2023/08/25 04:41:02;;;;;;;;;;;25.70;52.80;;;;;;1537215;75;791;-53
2023/08/25 04:43:05;;;;;;;;;;;25.70;52.80;;;;;;1537986;77;714;-55
2023/08/25 04:45:08;;;;;;;;;;;25.70;52.80;;;;;;1544782;77;1927;-53
2023/08/25 04:47:10;;;;;;;;;;;25.70;52.60;;;;;;1549638;75;1439;-55
2023/08/25 04:49:12;;;;;;;;;;;25.70;52.60;;;;;;1548097;77;1145;-55
2023/08/25 04:51:14;;;;;;;;;;;25.70;52.60;;;;;;1540925;75;1072;-55
2023/08/25 04:53:15;;;;;;;;;;;25.70;52.60;;;;;;1532452;75;1096;-55
2023/08/25 04:55:17;;;;;;;;;;;25.70;52.50;;;;;;1525169;76;745;-55
2023/08/25 04:57:19;;;;;;;;;;;25.70;52.50;;;;;;1529434;77;678;-55
2023/08/25 04:59:21;;;;;;;;;;;25.70;52.40;;;;;;1519657;77;1174;-52
2023/08/25 05:01:23;;;;;;;;;;;25.70;52.30;;;;;;1522385;76;1353;-54
2023/08/25 05:03:25;;;;;;;;;;;25.70;52.30;;;;;;1529036;77;775;-55
2023/08/25 05:05:27;;;;;;;;;;;25.70;52.30;;;;;;1520034;77;1909;-55
2023/08/25 05:07:29;;;;;;;;;;;25.70;52.20;;;;;;1524715;76;733;-54
2023/08/25 05:09:31;;;;;;;;;;;25.80;51.90;;;;;;1519491;76;1189;-55
2023/08/25 05:11:34;;;;;;;;;;;25.80;51.80;;;;;;1527671;76;775;-55
2023/08/25 05:13:36;;;;;;;;;;;25.70;51.60;;;;;;1536262;76;682;-51
2023/08/25 05:15:38;;;;;;;;;;;25.80;51.60;;;;;;1525154;76;1596;-52
2023/08/25 05:17:40;;;;;;;;;;;25.70;51.50;;;;;;1539007;76;720;-54
2023/08/25 05:19:42;;;;;;;;;;;25.70;51.60;;;;;;1545755;76;1146;-51
2023/08/25 05:21:44;;;;;;;;;;;25.70;51.60;;;;;;1524095;77;655;-54
2023/08/25 05:23:53;;;;;;;;;;;25.70;51.60;;;;;;1515155;76;705;-56
2023/08/25 05:25:52;;;;;;;;;;;25.70;51.60;;;;;;1516625;77;1941;-55
2023/08/25 05:27:54;;;;;;;;;;;25.70;51.60;;;;;;1517727;77;695;-55
2023/08/25 05:29:56;;;;;;;;;;;25.70;51.60;;;;;;1514570;77;1619;-55
2023/08/25 05:31:58;;;;;;;;;;;25.70;51.70;;;;;;1530324;76;655;-54
2023/08/25 05:34:00;;;;;;;;;;;25.70;51.60;;;;;;1534408;76;759;-54
2023/08/25 05:36:02;;;;;;;;;;;25.70;51.50;;;;;;1530079;76;744;-53
2023/08/25 05:38:04;;;;;;;;;;;25.70;51.50;;;;;;1523097;77;757;-52
2023/08/25 05:40:07;;;;;;;;;;;25.70;51.40;;;;;;1523864;77;1147;-55
2023/08/25 05:42:09;;;;;;;;;;;25.70;51.40;;;;;;1514017;77;744;-54
2023/08/25 05:44:11;;;;;;;;;;;25.70;51.40;;;;;;1527633;76;1536;-53
2023/08/25 05:46:12;;;;;;;;;;;25.70;51.40;;;;;;1523684;76;1941;-55
2023/08/25 05:48:14;;;;;;;;;;;25.70;51.40;;;;;;1524367;77;748;-56
2023/08/25 05:50:16;;;;;;;;;;;25.70;51.50;;;;;;1528839;76;1241;-55
2023/08/25 05:52:18;;;;;;;;;;;25.70;51.50;;;;;;1531627;76;907;-55
2023/08/25 05:54:20;;;;;;;;;;;25.70;51.60;;;;;;1527357;77;1057;-53
2023/08/25 05:56:22;;;;;;;;;;;25.60;51.70;;;;;;1522367;76;631;-55
2023/08/25 05:58:24;;;;;;;;;;;25.60;51.80;;;;;;1519060;76;1433;-53
2023/08/25 06:00:26;;;;;;;;;;;25.70;51.80;;;;;;1515226;76;1210;-53
2023/08/25 06:02:28;;;;;;;;;;;25.70;51.80;;;;;;1520391;78;704;-55
2023/08/25 06:04:30;;;;;;;;;;;25.70;51.80;;;;;;1513821;77;1942;-54
2023/08/25 06:06:31;;;;;;;;;;;25.70;51.90;;;;;;1519761;77;799;-55
2023/08/25 06:08:34;;;;;;;;;;;25.70;52.00;;;;;;1512878;76;658;-55
2023/08/25 06:10:36;;;;;;;;;;;25.70;51.90;;;;;;1532414;76;1162;-55
2023/08/25 06:12:38;;;;;;;;;;;25.70;52.00;;;;;;1513919;78;1592;-55
2023/08/25 06:14:40;;;;;;;;;;;25.70;52.10;;;;;;1514831;78;781;-55
2023/08/25 06:16:41;;;;;;;;;;;25.70;52.10;;;;;;1506543;76;822;-53
2023/08/25 06:18:43;;;;;;;;;;;25.70;52.00;;;;;;1524911;77;704;-53
2023/08/25 06:20:45;;;;;;;;;;;25.60;52.00;;;;;;1525185;77;1115;-52
2023/08/25 06:22:47;;;;;;;;;;;25.70;51.90;;;;;;1526613;76;753;-55
2023/08/25 06:24:49;;;;;;;;;;;25.70;52.00;;;;;;1523935;76;1916;-55
2023/08/25 06:26:51;;;;;;;;;;;25.70;51.90;;;;;;1514621;76;712;-55
2023/08/25 06:28:55;;;;;;;;;;;25.60;51.80;;;;;;1504378;76;689;-54
2023/08/25 06:30:56;;;;;;;;;;;25.70;51.80;;;;;;1524769;77;1555;-54
2023/08/25 06:32:58;;;;;;;;;;;25.70;51.80;;;;;;1517208;76;729;-52
2023/08/25 06:35:00;;;;;;;;;;;25.60;51.70;;;;;;1524523;78;742;-53
2023/08/25 06:37:02;;;;;;;;;;;25.60;51.50;;;;;;1497690;76;771;-54
2023/08/25 06:39:04;;;;;;;;;;;25.70;51.50;;;;;;1513245;76;1501;-53
2023/08/25 06:41:06;;;;;;;;;;;25.70;51.40;;;;;;1520508;76;706;-54
2023/08/25 06:43:08;;;;;;;;;;;25.70;51.40;;;;;;1523683;78;703;-54
2023/08/25 06:45:10;;;;;;;;;;;25.70;51.40;;;;;;1521923;77;1923;-53
2023/08/25 06:47:12;;;;;;;;;;;25.70;51.40;;;;;;1517656;76;741;-53
2023/08/25 06:49:14;;;;;;;;;;;25.70;51.30;;;;;;1513445;76;1156;-52
2023/08/25 06:51:15;;;;;;;;;;;25.70;51.20;;;;;;1529780;76;743;-52
2023/08/25 06:53:17;;;;;;;;;;;25.70;51.10;;;;;;1523226;76;1248;-55
2023/08/25 06:55:19;;;;;;;;;;;25.60;51.00;;;;;;1524928;76;1058;-56
2023/08/25 06:57:22;;;;;;;;;;;25.70;51.00;;;;;;1518465;76;708;-55
2023/08/25 06:59:24;;;;;;;;;;;25.70;51.00;;;;;;1512752;77;1206;-55
2023/08/25 07:01:26;;;;;;;;;;;25.70;51.00;;;;;;1521414;76;716;-55
2023/08/25 07:03:27;;;;;;;;;;;25.70;51.00;;;;;;1517046;76;734;-56
2023/08/25 07:05:29;;;;;;;;;;;25.70;51.00;;;;;;1512397;78;1937;-55
2023/08/25 07:07:31;;;;;;;;;;;25.70;51.10;;;;;;1518239;78;1470;-55
2023/08/25 07:09:34;;;;;;;;;;;25.70;51.20;;;;;;1518434;77;1135;-52
2023/08/25 07:11:36;;;;;;;;;;;25.70;51.10;;;;;;1506727;78;728;-55
2023/08/25 07:13:38;;;;;;;;;;;25.70;51.30;;;;;;1516525;77;731;-55
2023/08/25 07:15:40;;;;;;;;;;;25.70;51.30;;;;;;1512475;76;777;-54
2023/08/25 07:18:03;;;;;;;;;;;25.70;51.30;;;;;;1524270;76;681;-53
2023/08/25 07:20:05;;;;;;;;;;;25.70;51.30;;;;;;1575297;74;1214;-55
2023/08/25 07:22:08;;;;;;;;;;;25.70;51.30;;;;;;1585580;74;1476;-54
2023/08/25 07:24:10;;;;;;;;;;;25.70;51.30;;;;;;1588625;74;731;-55
2023/08/25 07:26:12;;;;;;;;;;;25.70;51.40;;;;;;1591971;74;1937;-55
2023/08/25 07:28:14;;;;;;;;;;;25.70;51.30;;;;;;1587099;74;791;-55
2023/08/25 07:30:16;;;;;;;;;;;25.70;51.30;;;;;;1586509;74;1123;-55
2023/08/25 07:32:18;;;;;;;;;;;25.70;51.30;;;;;;1584827;74;729;-56
2023/08/25 07:34:20;;;;;;;;;;;25.70;51.30;;;;;;1581929;74;714;-55
2023/08/25 07:36:22;;;;;;;;;;;25.60;51.30;;;;;;1583785;74;1565;-55
2023/08/25 07:38:24;;;;;;;;;;;25.70;51.30;;;;;;1582270;74;710;-52
2023/08/25 07:40:26;;;;;;;;;;;25.70;51.40;;;;;;1584065;74;1127;-55
2023/08/25 07:42:28;;;;;;;;;;;25.70;51.40;;;;;;1577889;74;705;-54
2023/08/25 07:44:30;;;;;;;;;;;25.70;51.60;;;;;;1587867;73;660;-53
2023/08/25 07:46:35;;;;;;;;;;;25.70;51.70;;;;;;1580826;74;1923;-52
2023/08/25 07:48:35;;;;;;;;;;;25.60;51.90;;;;;;1581489;74;1674;-54
2023/08/25 07:50:37;;;;;;;;;;;25.70;52.10;;;;;;1585393;74;1607;-55
2023/08/25 07:52:40;;;;;;;;;;;25.80;52.30;;;;;;1582844;74;728;-53
2023/08/25 07:54:42;;;;;;;;;;;25.70;52.40;;;;;;1592221;74;819;-55
2023/08/25 07:56:44;;;;;;;;;;;25.70;52.50;;;;;;1581394;74;749;-55
2023/08/25 07:58:46;;;;;;;;;;;25.70;52.60;;;;;;1581138;74;755;-55
2023/08/25 08:00:49;;;;;;;;;;;25.70;52.80;;;;;;1590102;74;1111;-55
2023/08/25 08:02:51;;;;;;;;;;;25.70;52.80;;;;;;1581641;74;782;-53
2023/08/25 08:04:53;;;;;;;;;;;25.70;52.90;;;;;;1579932;74;1415;-55
2023/08/25 08:06:55;;;;;;;;;;;25.70;52.90;;;;;;1582750;74;1937;-53
2023/08/25 08:08:57;;;;;;;;;;;25.80;53.00;;;;;;1586837;74;786;-56
2023/08/25 08:10:59;;;;;;;;;;;25.80;53.00;;;;;;1581737;74;791;-55
2023/08/25 08:13:01;;;;;;;;;;;25.80;53.00;;;;;;1577280;74;779;-55
2023/08/25 08:15:08;;;;;;;;;;;25.70;53.10;;;;;;1592717;74;775;-53
2023/08/25 08:17:08;;;;;;;;;;;25.70;53.10;;;;;;1585657;74;1162;-55
2023/08/25 08:19:10;;;;;;;;;;;25.70;53.20;;;;;;1580824;74;1546;-55
2023/08/25 08:21:13;;;;;;;;;;;25.70;53.20;;;;;;1581042;74;692;-55
2023/08/25 08:23:15;;;;;;;;;;;25.80;53.30;;;;;;1574758;74;736;-55
2023/08/25 08:25:17;;;;;;;;;;;25.80;53.40;;;;;;1583959;74;1941;-55
2023/08/25 08:27:18;;;;;;;;;;;25.80;53.50;;;;;;1582750;74;760;-55
2023/08/25 08:29:20;;;;;;;;;;;25.80;53.10;;;;;;1585632;74;1136;-55
2023/08/25 08:31:22;;;;;;;;;;;25.80;52.80;;;;;;1581003;74;1501;-55
2023/08/25 08:33:24;;;;;;;;;;;25.80;52.80;;;;;;1582363;74;713;-55
2023/08/25 08:35:26;;;;;;;;;;;25.80;52.60;;;;;;1580793;74;585;-52
2023/08/25 08:37:28;;;;;;;;;;;25.70;52.40;;;;;;1580917;74;755;-53
2023/08/25 08:39:30;;;;;;;;;;;25.70;52.50;;;;;;1585086;74;1128;-55
2023/08/25 08:41:32;;;;;;;;;;;25.70;52.70;;;;;;1581218;74;764;-55
2023/08/25 08:43:38;;;;;;;;;;;25.70;53.00;;;;;;1581946;74;764;-55
2023/08/25 08:45:39;;;;;;;;;;;25.70;53.20;;;;;;1583729;74;1926;-54
2023/08/25 08:47:41;;;;;;;;;;;25.70;53.60;;;;;;1584724;74;724;-53
2023/08/25 08:49:44;;;;;;;;;;;25.70;53.90;;;;;;1580441;74;1144;-54
2023/08/25 08:51:45;;;;;;;;;;;25.80;54.20;;;;;;1577520;74;745;-55
2023/08/25 08:53:48;;;;;;;;;;;25.70;54.30;;;;;;1588824;74;657;-54
2023/08/25 08:55:51;;;;;;;;;;;25.80;54.50;;;;;;1574929;74;728;-54
2023/08/25 08:57:53;;;;;;;;;;;25.70;54.90;;;;;;1585011;74;802;-55
2023/08/25 08:59:58;;;;;;;;;;;25.70;55.10;;;;;;1586532;74;1599;-55
2023/08/25 09:02:00;;;;;;;;;;;25.70;55.40;;;;;;1580807;74;1613;-53
2023/08/25 09:04:02;;;;;;;;;;;25.70;55.70;;;;;;1581458;74;746;-55
2023/08/25 09:06:04;;;;;;;;;;;25.60;56.00;;;;;;1582685;74;1926;-54
2023/08/25 09:08:07;;;;;;;;;;;25.70;55.90;;;;;;1586561;74;799;-51
2023/08/25 09:10:10;;;;;;;;;;;25.70;56.20;;;;;;1582910;74;1236;-55
2023/08/25 09:12:13;;;;;;;;;;;25.70;56.40;;;;;;1587907;74;685;-55
2023/08/25 09:14:28;;;;;;;;;;;25.70;56.50;;;;;;1585355;74;1497;-54
2023/08/25 09:16:28;;;;;;;;;;;25.70;56.50;;;;;;1589914;74;1515;-55
2023/08/25 09:18:34;;;;;;;;;;;25.70;56.50;;;;;;1585506;74;774;-55
2023/08/25 09:20:38;;;;;;;;;;;25.70;56.60;;;;;;1593075;74;1136;-56
2023/08/25 09:22:41;;;;;;;;;;;25.60;56.70;;;;;;1585744;74;748;-55
2023/08/25 09:24:43;;;;;;;;;;;25.70;56.70;;;;;;1585546;74;773;-55
2023/08/25 09:26:46;;;;;;;;;;;25.70;56.60;;;;;;1590001;74;1915;-53
2023/08/25 09:28:48;;;;;;;;;;;25.70;56.60;;;;;;1585223;74;1586;-53
2023/08/25 09:30:50;;;;;;;;;;;25.60;56.60;;;;;;1587594;74;1124;-52
2023/08/25 09:32:53;;;;;;;;;;;25.70;56.80;;;;;;1576997;74;658;-54
2023/08/25 09:34:55;;;;;;;;;;;25.70;56.80;;;;;;1579526;74;1956;-54
2023/08/25 09:36:57;;;;;;;;;;;25.70;56.70;;;;;;1584258;74;797;-55
2023/08/25 09:39:00;;;;;;;;;;;25.70;56.80;;;;;;1588522;74;1126;-55
2023/08/25 09:41:02;;;;;;;;;;;25.70;56.80;;;;;;1601326;74;746;-55
2023/08/25 09:43:04;;;;;;;;;;;25.70;56.80;;;;;;1590085;74;1340;-55
2023/08/25 09:45:07;;;;;;;;;;;25.70;56.80;;;;;;1590736;74;1086;-56
2023/08/25 09:47:09;;;;;;;;;;;25.70;56.90;;;;;;1583788;74;1925;-53
2023/08/25 09:49:12;;;;;;;;;;;25.70;56.90;;;;;;1597816;74;1132;-52
2023/08/25 09:51:16;;;;;;;;;;;25.70;56.80;;;;;;1588159;74;865;-53
2023/08/25 09:53:18;;;;;;;;;;;25.70;56.70;;;;;;1587034;74;849;-53
2023/08/25 09:55:20;;;;;;;;;;;25.70;56.70;;;;;;1581040;74;766;-54
2023/08/25 09:57:23;;;;;;;;;;;25.70;56.50;;;;;;1584337;74;1673;-52
2023/08/25 09:59:27;;;;;;;;;;;25.70;56.40;;;;;;1588231;74;1097;-55
2023/08/25 10:01:28;;;;;;;;;;;25.70;56.50;;;;;;1578119;74;769;-53
2023/08/25 10:03:30;;;;;;;;;;;25.70;56.50;;;;;;1581138;74;807;-52
2023/08/25 10:05:32;;;;;;;;;;;25.70;56.50;;;;;;1585127;74;779;-56
2023/08/25 10:07:34;;;;;;;;;;;25.70;56.30;;;;;;1585359;74;1940;-54
2023/08/25 10:09:36;;;;;;;;;;;25.70;56.30;;;;;;1584796;74;1148;-54
2023/08/25 10:11:40;;;;;;;;;;;25.70;56.30;;;;;;1575418;74;1666;-55
2023/08/25 10:13:41;;;;;;;;;;;25.70;56.40;;;;;;1592281;74;697;-54
2023/08/25 10:15:43;;;;;;;;;;;25.70;56.50;;;;;;1578468;74;691;-52
2023/08/25 10:17:46;;;;;;;;;;;25.70;56.50;;;;;;1579860;74;748;-52
2023/08/25 10:19:48;;;;;;;;;;;25.70;56.60;;;;;;1580519;74;1089;-53
2023/08/25 10:21:51;;;;;;;;;;;25.70;56.50;;;;;;1581766;74;713;-55
2023/08/25 10:23:54;;;;;;;;;;;25.70;56.40;;;;;;1594525;74;1555;-54
2023/08/25 10:25:56;;;;;;;;;;;25.70;56.30;;;;;;1576285;74;806;-55
2023/08/25 10:27:58;;;;;;;;;;;25.70;56.20;;;;;;1587334;74;723;-54
2023/08/25 10:30:00;;;;;;;;;;;25.70;56.10;;;;;;1579725;74;1105;-55
2023/08/25 10:32:02;;;;;;;;;;;25.70;56.00;;;;;;1581104;74;725;-55
2023/08/25 10:34:04;;;;;;;;;;;25.70;55.60;;;;;;1581746;74;816;-55
2023/08/25 10:36:06;;;;;;;;;;;25.70;55.60;;;;;;1590268;74;832;-55
2023/08/25 10:38:23;;;;;;;;;;;25.70;55.50;;;;;;1579736;74;1422;-53
2023/08/25 10:40:24;;;;;;;;;;;25.70;55.50;;;;;;1582343;74;1148;-55
2023/08/25 10:42:27;;;;;;;;;;;25.70;55.50;;;;;;1559965;75;1156;-55
2023/08/25 10:44:29;;;;;;;;;;;25.70;55.50;;;;;;1581339;74;857;-55
2023/08/25 10:46:31;;;;;;;;;;;25.80;55.50;;;;;;1589382;74;1940;-53
2023/08/25 10:48:33;;;;;;;;;;;25.70;55.50;;;;;;1579117;74;791;-54
2023/08/25 10:50:35;;;;;;;;;;;25.60;55.50;;;;;;1584940;74;1114;-52
2023/08/25 10:52:38;;;;;;;;;;;25.80;55.50;;;;;;1585872;74;1551;-53
2023/08/25 10:54:41;;;;;;;;;;;25.70;55.50;;;;;;1589357;74;2316;-55
2023/08/25 10:56:43;;;;;;;;;;;25.80;55.50;;;;;;1590279;74;750;-52
2023/08/25 10:58:52;;;;;;;;;;;25.80;55.50;;;;;;1582782;74;804;-55
2023/08/25 11:00:57;;;;;;;;;;;25.70;55.50;;;;;;1583357;74;1881;-54
2023/08/25 11:03:01;;;;;;;;;;;25.70;55.50;;;;;;1592109;74;1748;-54
2023/08/25 11:05:21;;;;;;;;;;;25.80;55.50;;;;;;1580966;74;884;-55
2023/08/25 11:07:24;;;;;;;;;;;25.80;55.50;;;;;;1581072;74;1935;-55
2023/08/25 11:09:31;;;;;;;;;;;25.80;55.50;;;;;;1585089;74;1764;-55
2023/08/25 11:11:33;;;;;;;;;;;25.80;55.50;;;;;;1576136;74;1677;-54
2023/08/25 11:13:36;;;;;;;;;;;25.80;55.50;;;;;;1581420;74;764;-54
2023/08/25 11:15:38;;;;;;;;;;;25.80;55.50;;;;;;1581082;74;880;-53
2023/08/25 11:17:40;;;;;;;;;;;25.80;55.50;;;;;;1584076;74;737;-53
2023/08/25 11:19:42;;;;;;;;;;;25.80;55.50;;;;;;1583536;73;1187;-55
2023/08/25 11:21:44;;;;;;;;;;;25.80;55.50;;;;;;1572501;74;1383;-55
2023/08/25 11:23:46;;;;;;;;;;;25.80;55.50;;;;;;1576419;74;703;-55
2023/08/25 11:25:48;;;;;;;;;;;25.90;55.50;;;;;;1576596;74;788;-55
2023/08/25 11:27:51;;;;;;;;;;;25.80;55.40;;;;;;1578949;74;1907;-54
2023/08/25 11:29:54;;;;;;;;;;;25.80;55.40;;;;;;1581074;74;1156;-55
2023/08/25 11:31:56;;;;;;;;;;;25.90;55.50;;;;;;1587138;74;1522;-55
2023/08/25 11:33:58;;;;;;;;;;;25.80;55.50;;;;;;1593376;74;788;-54
2023/08/25 11:36:02;;;;;;;;;;;25.80;55.50;;;;;;1576995;74;1532;-52
2023/08/25 11:38:04;;;;;;;;;;;25.80;55.50;;;;;;1581066;74;764;-54
2023/08/25 11:40:07;;;;;;;;;;;25.80;55.50;;;;;;1581005;74;1098;-55
2023/08/25 11:42:09;;;;;;;;;;;25.90;55.50;;;;;;1571626;74;1383;-55
2023/08/25 11:44:12;;;;;;;;;;;25.90;55.50;;;;;;1579963;74;714;-55
2023/08/25 11:46:14;;;;;;;;;;;25.80;55.50;;;;;;1580643;74;728;-55
2023/08/25 11:48:16;;;;;;;;;;;25.80;55.50;;;;;;1580500;74;1902;-55
2023/08/25 11:50:18;;;;;;;;;;;25.90;55.50;;;;;;1586640;74;1149;-55
2023/08/25 11:52:20;;;;;;;;;;;25.80;55.50;;;;;;1584082;74;660;-55
2023/08/25 11:54:21;;;;;;;;;;;25.80;55.50;;;;;;1587825;74;740;-54
2023/08/25 11:56:23;;;;;;;;;;;25.80;55.50;;;;;;1582132;74;681;-52
2023/08/25 11:58:33;;;;;;;;;;;25.80;55.50;;;;;;1582000;74;815;-55
2023/08/25 12:00:37;;;;;;;;;;;25.90;55.40;;;;;;1579568;74;1110;-54
2023/08/25 12:02:39;;;;;;;;;;;25.90;55.50;;;;;;1580405;74;1412;-54
2023/08/25 12:04:43;;;;;;;;;;;25.80;55.50;;;;;;1580640;74;722;-55
2023/08/25 12:06:45;;;;;;;;;;;25.90;55.40;;;;;;1575153;74;1926;-54
2023/08/25 12:08:48;;;;;;;;;;;25.80;55.40;;;;;;1585502;74;736;-53